sensor_id;sensor_type;location;lat;lon;timestamp;P1;durP1;ratioP1;P2;durP2;ratioP2
18166;SDS011;9208;42.688;23.404;2023-02-28T00:01:29;16.20;;;11.17;;
18166;SDS011;9208;42.688;23.404;2023-02-28T00:03:55;15.17;;;11.20;;
18166;SDS011;9208;42.688;23.404;2023-02-28T00:06:21;14.00;;;11.40;;
18166;SDS011;9208;42.688;23.404;2023-02-28T00:08:47;13.67;;;11.17;;
18166;SDS011;9208;42.688;23.404;2023-02-28T00:11:13;16.47;;;11.63;;
18166;SDS011;9208;42.688;23.404;2023-02-28T00:13:41;16.00;;;11.60;;
18166;SDS011;9208;42.688;23.404;2023-02-28T00:16:12;17.93;;;12.93;;
18166;SDS011;9208;42.688;23.404;2023-02-28T00:18:40;14.43;;;12.13;;
18166;SDS011;9208;42.688;23.404;2023-02-28T00:21:06;15.10;;;12.63;;
18166;SDS011;9208;42.688;23.404;2023-02-28T00:23:32;15.80;;;11.63;;
18166;SDS011;9208;42.688;23.404;2023-02-28T00:25:58;15.50;;;12.17;;
18166;SDS011;9208;42.688;23.404;2023-02-28T00:28:24;17.13;;;12.07;;
18166;SDS011;9208;42.688;23.404;2023-02-28T00:30:50;15.30;;;11.13;;
18166;SDS011;9208;42.688;23.404;2023-02-28T00:33:15;15.17;;;12.37;;
18166;SDS011;9208;42.688;23.404;2023-02-28T00:35:41;15.60;;;11.50;;
18166;SDS011;9208;42.688;23.404;2023-02-28T00:38:06;12.70;;;10.33;;
18166;SDS011;9208;42.688;23.404;2023-02-28T00:40:32;15.57;;;11.17;;
18166;SDS011;9208;42.688;23.404;2023-02-28T00:42:57;14.43;;;11.07;;
18166;SDS011;9208;42.688;23.404;2023-02-28T00:45:23;15.17;;;11.50;;
18166;SDS011;9208;42.688;23.404;2023-02-28T00:47:48;15.63;;;11.83;;
18166;SDS011;9208;42.688;23.404;2023-02-28T00:50:23;15.13;;;11.40;;
18166;SDS011;9208;42.688;23.404;2023-02-28T00:52:49;14.07;;;10.90;;
18166;SDS011;9208;42.688;23.404;2023-02-28T00:55:14;14.30;;;11.20;;
18166;SDS011;9208;42.688;23.404;2023-02-28T00:57:40;14.83;;;10.73;;
18166;SDS011;9208;42.688;23.404;2023-02-28T01:00:06;14.40;;;10.67;;
18166;SDS011;9208;42.688;23.404;2023-02-28T01:02:32;16.00;;;12.20;;
18166;SDS011;9208;42.688;23.404;2023-02-28T01:04:58;14.37;;;11.60;;
18166;SDS011;9208;42.688;23.404;2023-02-28T01:07:23;18.03;;;12.50;;
18166;SDS011;9208;42.688;23.404;2023-02-28T01:09:48;14.50;;;10.43;;
18166;SDS011;9208;42.688;23.404;2023-02-28T01:12:14;14.90;;;11.60;;
18166;SDS011;9208;42.688;23.404;2023-02-28T01:14:40;16.57;;;11.87;;
18166;SDS011;9208;42.688;23.404;2023-02-28T01:17:06;16.53;;;11.83;;
18166;SDS011;9208;42.688;23.404;2023-02-28T01:19:32;15.30;;;12.13;;
18166;SDS011;9208;42.688;23.404;2023-02-28T01:22:00;15.07;;;11.63;;
18166;SDS011;9208;42.688;23.404;2023-02-28T01:24:30;17.07;;;12.43;;
18166;SDS011;9208;42.688;23.404;2023-02-28T01:26:56;13.03;;;11.60;;
18166;SDS011;9208;42.688;23.404;2023-02-28T01:29:22;16.03;;;12.23;;
18166;SDS011;9208;42.688;23.404;2023-02-28T01:31:47;17.57;;;11.97;;
18166;SDS011;9208;42.688;23.404;2023-02-28T01:34:12;17.60;;;12.07;;
18166;SDS011;9208;42.688;23.404;2023-02-28T01:36:38;14.20;;;11.67;;
18166;SDS011;9208;42.688;23.404;2023-02-28T01:39:03;14.47;;;11.97;;
18166;SDS011;9208;42.688;23.404;2023-02-28T01:41:30;16.67;;;11.43;;
18166;SDS011;9208;42.688;23.404;2023-02-28T01:43:58;15.87;;;11.70;;
18166;SDS011;9208;42.688;23.404;2023-02-28T01:46:28;14.40;;;11.13;;
18166;SDS011;9208;42.688;23.404;2023-02-28T01:48:57;13.00;;;10.73;;
18166;SDS011;9208;42.688;23.404;2023-02-28T01:54:06;15.03;;;11.73;;
18166;SDS011;9208;42.688;23.404;2023-02-28T01:56:38;14.43;;;11.27;;
18166;SDS011;9208;42.688;23.404;2023-02-28T01:59:10;13.67;;;11.47;;
18166;SDS011;9208;42.688;23.404;2023-02-28T02:01:38;15.67;;;11.90;;
18166;SDS011;9208;42.688;23.404;2023-02-28T02:04:04;15.93;;;12.23;;
18166;SDS011;9208;42.688;23.404;2023-02-28T02:06:30;16.23;;;12.70;;
18166;SDS011;9208;42.688;23.404;2023-02-28T02:09:02;17.87;;;12.87;;
18166;SDS011;9208;42.688;23.404;2023-02-28T02:11:28;16.83;;;13.07;;
18166;SDS011;9208;42.688;23.404;2023-02-28T02:17:33;18.30;;;12.90;;
18166;SDS011;9208;42.688;23.404;2023-02-28T02:38:49;19.17;;;13.73;;
18166;SDS011;9208;42.688;23.404;2023-02-28T02:42:01;16.40;;;12.40;;
18166;SDS011;9208;42.688;23.404;2023-02-28T02:44:36;18.03;;;12.90;;
18166;SDS011;9208;42.688;23.404;2023-02-28T02:47:13;16.10;;;12.13;;
18166;SDS011;9208;42.688;23.404;2023-02-28T02:49:52;17.37;;;13.23;;
18166;SDS011;9208;42.688;23.404;2023-02-28T02:52:26;16.03;;;12.67;;
18166;SDS011;9208;42.688;23.404;2023-02-28T02:55:06;16.93;;;13.13;;
18166;SDS011;9208;42.688;23.404;2023-02-28T02:57:42;19.40;;;14.47;;
18166;SDS011;9208;42.688;23.404;2023-02-28T03:00:14;21.77;;;14.47;;
18166;SDS011;9208;42.688;23.404;2023-02-28T03:02:42;20.00;;;14.70;;
18166;SDS011;9208;42.688;23.404;2023-02-28T03:05:20;20.33;;;13.80;;
18166;SDS011;9208;42.688;23.404;2023-02-28T03:07:49;18.93;;;13.67;;
18166;SDS011;9208;42.688;23.404;2023-02-28T03:15:33;20.83;;;15.53;;
18166;SDS011;9208;42.688;23.404;2023-02-28T03:18:54;18.40;;;14.50;;
18166;SDS011;9208;42.688;23.404;2023-02-28T03:24:49;18.03;;;13.43;;
18166;SDS011;9208;42.688;23.404;2023-02-28T03:27:23;16.43;;;13.13;;
18166;SDS011;9208;42.688;23.404;2023-02-28T03:35:27;19.70;;;14.13;;
18166;SDS011;9208;42.688;23.404;2023-02-28T03:38:05;19.83;;;15.73;;
18166;SDS011;9208;42.688;23.404;2023-02-28T03:40:39;20.17;;;15.73;;
18166;SDS011;9208;42.688;23.404;2023-02-28T03:43:12;24.43;;;16.97;;
18166;SDS011;9208;42.688;23.404;2023-02-28T03:45:43;20.30;;;15.17;;
18166;SDS011;9208;42.688;23.404;2023-02-28T03:48:18;20.43;;;15.37;;
18166;SDS011;9208;42.688;23.404;2023-02-28T03:50:49;23.83;;;18.47;;
18166;SDS011;9208;42.688;23.404;2023-02-28T03:53:41;28.60;;;21.77;;
18166;SDS011;9208;42.688;23.404;2023-02-28T04:01:47;24.53;;;17.97;;
18166;SDS011;9208;42.688;23.404;2023-02-28T04:04:14;28.77;;;18.97;;
18166;SDS011;9208;42.688;23.404;2023-02-28T04:06:40;25.90;;;17.87;;
18166;SDS011;9208;42.688;23.404;2023-02-28T04:09:07;23.87;;;17.80;;
18166;SDS011;9208;42.688;23.404;2023-02-28T04:11:35;23.07;;;16.83;;
18166;SDS011;9208;42.688;23.404;2023-02-28T04:14:05;24.50;;;19.00;;
18166;SDS011;9208;42.688;23.404;2023-02-28T04:16:33;25.00;;;17.90;;
18166;SDS011;9208;42.688;23.404;2023-02-28T04:19:00;21.97;;;16.10;;
18166;SDS011;9208;42.688;23.404;2023-02-28T04:21:40;18.97;;;14.67;;
18166;SDS011;9208;42.688;23.404;2023-02-28T04:24:08;22.30;;;16.17;;
18166;SDS011;9208;42.688;23.404;2023-02-28T04:26:39;24.80;;;17.93;;
18166;SDS011;9208;42.688;23.404;2023-02-28T04:29:05;25.20;;;18.37;;
18166;SDS011;9208;42.688;23.404;2023-02-28T04:31:32;26.97;;;18.67;;
18166;SDS011;9208;42.688;23.404;2023-02-28T04:33:57;28.03;;;17.97;;
18166;SDS011;9208;42.688;23.404;2023-02-28T04:36:23;32.37;;;20.20;;
18166;SDS011;9208;42.688;23.404;2023-02-28T04:38:48;30.37;;;19.20;;
18166;SDS011;9208;42.688;23.404;2023-02-28T04:41:14;30.37;;;17.37;;
18166;SDS011;9208;42.688;23.404;2023-02-28T04:43:41;26.87;;;17.70;;
18166;SDS011;9208;42.688;23.404;2023-02-28T04:46:07;25.47;;;18.03;;
18166;SDS011;9208;42.688;23.404;2023-02-28T04:48:34;24.97;;;17.13;;
18166;SDS011;9208;42.688;23.404;2023-02-28T04:51:02;23.33;;;16.50;;
18166;SDS011;9208;42.688;23.404;2023-02-28T04:53:32;20.23;;;14.80;;
18166;SDS011;9208;42.688;23.404;2023-02-28T04:55:58;20.60;;;14.90;;
18166;SDS011;9208;42.688;23.404;2023-02-28T04:58:24;20.83;;;14.87;;
18166;SDS011;9208;42.688;23.404;2023-02-28T05:00:51;23.87;;;16.00;;
18166;SDS011;9208;42.688;23.404;2023-02-28T05:03:17;21.30;;;15.07;;
18166;SDS011;9208;42.688;23.404;2023-02-28T05:05:43;20.30;;;14.93;;
18166;SDS011;9208;42.688;23.404;2023-02-28T05:08:08;21.43;;;15.23;;
18166;SDS011;9208;42.688;23.404;2023-02-28T05:10:35;21.83;;;16.23;;
18166;SDS011;9208;42.688;23.404;2023-02-28T05:13:01;25.07;;;16.47;;
18166;SDS011;9208;42.688;23.404;2023-02-28T05:15:26;22.40;;;15.33;;
18166;SDS011;9208;42.688;23.404;2023-02-28T05:17:52;23.13;;;14.73;;
18166;SDS011;9208;42.688;23.404;2023-02-28T05:20:17;29.93;;;17.20;;
18166;SDS011;9208;42.688;23.404;2023-02-28T05:22:43;25.97;;;16.33;;
18166;SDS011;9208;42.688;23.404;2023-02-28T05:25:13;27.57;;;16.97;;
18166;SDS011;9208;42.688;23.404;2023-02-28T05:27:42;23.00;;;16.57;;
18166;SDS011;9208;42.688;23.404;2023-02-28T05:30:12;23.63;;;16.03;;
18166;SDS011;9208;42.688;23.404;2023-02-28T05:32:38;24.60;;;15.73;;
18166;SDS011;9208;42.688;23.404;2023-02-28T05:35:04;24.40;;;16.40;;
18166;SDS011;9208;42.688;23.404;2023-02-28T05:37:30;24.30;;;15.47;;
18166;SDS011;9208;42.688;23.404;2023-02-28T05:39:55;23.97;;;16.40;;
18166;SDS011;9208;42.688;23.404;2023-02-28T05:42:21;23.90;;;16.10;;
18166;SDS011;9208;42.688;23.404;2023-02-28T05:44:46;25.90;;;16.90;;
18166;SDS011;9208;42.688;23.404;2023-02-28T05:47:11;21.97;;;15.57;;
18166;SDS011;9208;42.688;23.404;2023-02-28T05:49:40;23.97;;;16.23;;
18166;SDS011;9208;42.688;23.404;2023-02-28T05:52:06;24.17;;;16.33;;
18166;SDS011;9208;42.688;23.404;2023-02-28T05:54:31;22.90;;;15.77;;
18166;SDS011;9208;42.688;23.404;2023-02-28T05:56:57;25.43;;;17.07;;
18166;SDS011;9208;42.688;23.404;2023-02-28T05:59:22;23.77;;;17.33;;
18166;SDS011;9208;42.688;23.404;2023-02-28T06:01:49;23.27;;;16.53;;
18166;SDS011;9208;42.688;23.404;2023-02-28T06:04:15;27.80;;;18.23;;
18166;SDS011;9208;42.688;23.404;2023-02-28T06:06:44;25.97;;;18.27;;
18166;SDS011;9208;42.688;23.404;2023-02-28T06:09:13;25.83;;;17.43;;
18166;SDS011;9208;42.688;23.404;2023-02-28T06:11:40;27.03;;;19.67;;
18166;SDS011;9208;42.688;23.404;2023-02-28T06:14:05;25.67;;;18.07;;
18166;SDS011;9208;42.688;23.404;2023-02-28T06:16:32;24.97;;;17.43;;
18166;SDS011;9208;42.688;23.404;2023-02-28T06:19:00;23.00;;;16.93;;
18166;SDS011;9208;42.688;23.404;2023-02-28T06:21:28;25.03;;;16.53;;
18166;SDS011;9208;42.688;23.404;2023-02-28T06:23:54;25.10;;;17.90;;
18166;SDS011;9208;42.688;23.404;2023-02-28T06:26:21;24.30;;;17.00;;
18166;SDS011;9208;42.688;23.404;2023-02-28T06:28:47;23.37;;;17.83;;
18166;SDS011;9208;42.688;23.404;2023-02-28T06:31:13;25.67;;;17.40;;
18166;SDS011;9208;42.688;23.404;2023-02-28T06:33:40;21.43;;;16.27;;
18166;SDS011;9208;42.688;23.404;2023-02-28T06:36:07;22.43;;;16.63;;
18166;SDS011;9208;42.688;23.404;2023-02-28T06:38:34;22.37;;;17.00;;
18166;SDS011;9208;42.688;23.404;2023-02-28T06:41:00;21.47;;;15.70;;
18166;SDS011;9208;42.688;23.404;2023-02-28T06:43:27;21.80;;;15.90;;
18166;SDS011;9208;42.688;23.404;2023-02-28T06:45:55;17.47;;;14.07;;
18166;SDS011;9208;42.688;23.404;2023-02-28T06:48:22;15.13;;;12.77;;
18166;SDS011;9208;42.688;23.404;2023-02-28T06:50:48;20.73;;;15.63;;
18166;SDS011;9208;42.688;23.404;2023-02-28T06:53:13;20.23;;;16.43;;
18166;SDS011;9208;42.688;23.404;2023-02-28T06:55:39;21.40;;;15.23;;
18166;SDS011;9208;42.688;23.404;2023-02-28T06:58:05;18.53;;;14.90;;
18166;SDS011;9208;42.688;23.404;2023-02-28T07:00:42;17.93;;;14.60;;
18166;SDS011;9208;42.688;23.404;2023-02-28T07:03:09;20.03;;;16.20;;
18166;SDS011;9208;42.688;23.404;2023-02-28T07:05:35;20.20;;;17.60;;
18166;SDS011;9208;42.688;23.404;2023-02-28T07:08:01;19.13;;;16.70;;
18166;SDS011;9208;42.688;23.404;2023-02-28T07:10:29;18.07;;;14.80;;
18166;SDS011;9208;42.688;23.404;2023-02-28T07:12:54;19.13;;;16.00;;
18166;SDS011;9208;42.688;23.404;2023-02-28T07:15:20;20.67;;;16.47;;
18166;SDS011;9208;42.688;23.404;2023-02-28T07:17:45;20.80;;;17.23;;
18166;SDS011;9208;42.688;23.404;2023-02-28T07:20:11;21.33;;;16.57;;
18166;SDS011;9208;42.688;23.404;2023-02-28T07:22:37;21.77;;;16.77;;
18166;SDS011;9208;42.688;23.404;2023-02-28T07:25:03;22.07;;;17.73;;
18166;SDS011;9208;42.688;23.404;2023-02-28T07:27:29;21.63;;;17.57;;
18166;SDS011;9208;42.688;23.404;2023-02-28T07:29:55;22.20;;;18.23;;
18166;SDS011;9208;42.688;23.404;2023-02-28T07:32:20;23.33;;;19.87;;
18166;SDS011;9208;42.688;23.404;2023-02-28T07:34:45;22.23;;;19.10;;
18166;SDS011;9208;42.688;23.404;2023-02-28T07:37:11;22.17;;;18.53;;
18166;SDS011;9208;42.688;23.404;2023-02-28T07:39:39;22.77;;;18.93;;
18166;SDS011;9208;42.688;23.404;2023-02-28T07:42:08;23.03;;;18.73;;
18166;SDS011;9208;42.688;23.404;2023-02-28T07:44:36;21.83;;;18.00;;
18166;SDS011;9208;42.688;23.404;2023-02-28T07:47:09;19.97;;;16.50;;
18166;SDS011;9208;42.688;23.404;2023-02-28T07:49:38;22.97;;;17.03;;
18166;SDS011;9208;42.688;23.404;2023-02-28T07:52:04;21.40;;;16.33;;
18166;SDS011;9208;42.688;23.404;2023-02-28T07:54:31;21.07;;;17.60;;
18166;SDS011;9208;42.688;23.404;2023-02-28T07:56:56;22.67;;;17.53;;
18166;SDS011;9208;42.688;23.404;2023-02-28T07:59:22;20.90;;;18.27;;
18166;SDS011;9208;42.688;23.404;2023-02-28T08:01:47;23.50;;;17.93;;
18166;SDS011;9208;42.688;23.404;2023-02-28T08:04:15;22.77;;;16.80;;
18166;SDS011;9208;42.688;23.404;2023-02-28T08:06:43;24.50;;;18.50;;
18166;SDS011;9208;42.688;23.404;2023-02-28T08:09:09;22.00;;;17.93;;
18166;SDS011;9208;42.688;23.404;2023-02-28T08:11:34;26.23;;;18.17;;
18166;SDS011;9208;42.688;23.404;2023-02-28T08:14:01;26.33;;;18.33;;
18166;SDS011;9208;42.688;23.404;2023-02-28T08:16:26;27.13;;;19.97;;
18166;SDS011;9208;42.688;23.404;2023-02-28T08:18:52;25.67;;;19.80;;
18166;SDS011;9208;42.688;23.404;2023-02-28T08:21:18;27.07;;;19.43;;
18166;SDS011;9208;42.688;23.404;2023-02-28T08:23:47;24.57;;;17.87;;
18166;SDS011;9208;42.688;23.404;2023-02-28T08:26:15;23.57;;;16.37;;
18166;SDS011;9208;42.688;23.404;2023-02-28T08:28:41;21.30;;;15.93;;
18166;SDS011;9208;42.688;23.404;2023-02-28T08:31:08;23.77;;;16.47;;
18166;SDS011;9208;42.688;23.404;2023-02-28T08:33:34;22.10;;;15.03;;
18166;SDS011;9208;42.688;23.404;2023-02-28T08:36:01;26.67;;;15.90;;
18166;SDS011;9208;42.688;23.404;2023-02-28T08:38:26;24.93;;;15.13;;
18166;SDS011;9208;42.688;23.404;2023-02-28T08:40:58;20.83;;;14.87;;
18166;SDS011;9208;42.688;23.404;2023-02-28T08:43:25;24.30;;;15.33;;
18166;SDS011;9208;42.688;23.404;2023-02-28T08:45:54;21.50;;;15.37;;
18166;SDS011;9208;42.688;23.404;2023-02-28T08:48:22;25.17;;;15.83;;
18166;SDS011;9208;42.688;23.404;2023-02-28T08:51:10;25.53;;;14.67;;
18166;SDS011;9208;42.688;23.404;2023-02-28T08:53:38;22.87;;;14.43;;
18166;SDS011;9208;42.688;23.404;2023-02-28T08:56:06;21.50;;;15.37;;
18166;SDS011;9208;42.688;23.404;2023-02-28T08:58:34;25.00;;;14.57;;
18166;SDS011;9208;42.688;23.404;2023-02-28T09:01:00;20.97;;;14.13;;
18166;SDS011;9208;42.688;23.404;2023-02-28T09:03:31;22.13;;;13.87;;
18166;SDS011;9208;42.688;23.404;2023-02-28T09:05:58;24.43;;;14.07;;
18166;SDS011;9208;42.688;23.404;2023-02-28T09:08:26;21.93;;;13.40;;
18166;SDS011;9208;42.688;23.404;2023-02-28T09:10:53;21.27;;;13.57;;
18166;SDS011;9208;42.688;23.404;2023-02-28T09:13:20;16.47;;;12.07;;
18166;SDS011;9208;42.688;23.404;2023-02-28T09:15:46;20.07;;;13.13;;
18166;SDS011;9208;42.688;23.404;2023-02-28T09:18:11;20.63;;;12.70;;
18166;SDS011;9208;42.688;23.404;2023-02-28T09:20:38;20.67;;;13.33;;
18166;SDS011;9208;42.688;23.404;2023-02-28T09:23:04;18.80;;;12.90;;
18166;SDS011;9208;42.688;23.404;2023-02-28T09:25:30;20.13;;;12.93;;
18166;SDS011;9208;42.688;23.404;2023-02-28T09:27:56;21.20;;;12.50;;
18166;SDS011;9208;42.688;23.404;2023-02-28T09:30:21;19.80;;;12.57;;
18166;SDS011;9208;42.688;23.404;2023-02-28T09:32:46;19.63;;;12.60;;
18166;SDS011;9208;42.688;23.404;2023-02-28T09:35:17;19.67;;;12.80;;
18166;SDS011;9208;42.688;23.404;2023-02-28T09:37:43;19.17;;;13.83;;
18166;SDS011;9208;42.688;23.404;2023-02-28T09:40:09;16.93;;;11.97;;
18166;SDS011;9208;42.688;23.404;2023-02-28T09:42:37;16.23;;;11.80;;
18166;SDS011;9208;42.688;23.404;2023-02-28T09:45:16;16.13;;;11.93;;
18166;SDS011;9208;42.688;23.404;2023-02-28T09:47:54;18.93;;;11.97;;
18166;SDS011;9208;42.688;23.404;2023-02-28T09:52:59;18.23;;;12.30;;
18166;SDS011;9208;42.688;23.404;2023-02-28T09:58:00;24.63;;;12.40;;
18166;SDS011;9208;42.688;23.404;2023-02-28T10:00:29;17.70;;;10.57;;
18166;SDS011;9208;42.688;23.404;2023-02-28T10:03:04;15.27;;;10.53;;
18166;SDS011;9208;42.688;23.404;2023-02-28T10:06:03;20.80;;;11.73;;
18166;SDS011;9208;42.688;23.404;2023-02-28T10:11:11;17.10;;;11.67;;
18166;SDS011;9208;42.688;23.404;2023-02-28T10:25:01;19.73;;;10.73;;
18166;SDS011;9208;42.688;23.404;2023-02-28T10:27:31;20.00;;;11.43;;
18166;SDS011;9208;42.688;23.404;2023-02-28T10:30:00;17.50;;;11.23;;
18166;SDS011;9208;42.688;23.404;2023-02-28T10:32:33;17.07;;;11.43;;
18166;SDS011;9208;42.688;23.404;2023-02-28T10:37:34;17.37;;;11.07;;
18166;SDS011;9208;42.688;23.404;2023-02-28T10:40:03;19.60;;;11.13;;
18166;SDS011;9208;42.688;23.404;2023-02-28T10:42:31;14.70;;;11.27;;
18166;SDS011;9208;42.688;23.404;2023-02-28T10:45:16;14.17;;;11.43;;
18166;SDS011;9208;42.688;23.404;2023-02-28T10:47:58;18.23;;;11.60;;
18166;SDS011;9208;42.688;23.404;2023-02-28T10:55:35;16.00;;;12.27;;
18166;SDS011;9208;42.688;23.404;2023-02-28T10:58:01;18.50;;;11.97;;
18166;SDS011;9208;42.688;23.404;2023-02-28T11:00:32;18.07;;;11.97;;
18166;SDS011;9208;42.688;23.404;2023-02-28T11:02:59;15.83;;;11.50;;
18166;SDS011;9208;42.688;23.404;2023-02-28T11:05:32;17.17;;;11.30;;
18166;SDS011;9208;42.688;23.404;2023-02-28T11:08:10;17.10;;;10.63;;
18166;SDS011;9208;42.688;23.404;2023-02-28T11:10:38;17.60;;;11.07;;
18166;SDS011;9208;42.688;23.404;2023-02-28T11:13:04;18.50;;;11.33;;
18166;SDS011;9208;42.688;23.404;2023-02-28T11:15:32;18.53;;;10.67;;
18166;SDS011;9208;42.688;23.404;2023-02-28T11:18:20;18.30;;;10.83;;
18166;SDS011;9208;42.688;23.404;2023-02-28T11:20:50;18.87;;;11.57;;
18166;SDS011;9208;42.688;23.404;2023-02-28T11:23:20;20.83;;;12.10;;
18166;SDS011;9208;42.688;23.404;2023-02-28T11:25:57;17.57;;;11.33;;
18166;SDS011;9208;42.688;23.404;2023-02-28T11:28:35;18.27;;;11.57;;
18166;SDS011;9208;42.688;23.404;2023-02-28T11:36:29;20.27;;;12.40;;
18166;SDS011;9208;42.688;23.404;2023-02-28T11:39:00;18.50;;;12.00;;
18166;SDS011;9208;42.688;23.404;2023-02-28T11:46:49;21.40;;;11.63;;
18166;SDS011;9208;42.688;23.404;2023-02-28T11:51:59;19.97;;;12.23;;
18166;SDS011;9208;42.688;23.404;2023-02-28T11:57:29;18.70;;;11.83;;
18166;SDS011;9208;42.688;23.404;2023-02-28T12:00:05;18.47;;;11.70;;
18166;SDS011;9208;42.688;23.404;2023-02-28T12:02:35;17.60;;;10.87;;
18166;SDS011;9208;42.688;23.404;2023-02-28T12:13:16;17.03;;;10.53;;
18166;SDS011;9208;42.688;23.404;2023-02-28T12:18:24;18.37;;;10.23;;
18166;SDS011;9208;42.688;23.404;2023-02-28T12:21:01;19.93;;;10.10;;
18166;SDS011;9208;42.688;23.404;2023-02-28T12:29:12;18.60;;;9.97;;
18166;SDS011;9208;42.688;23.404;2023-02-28T12:31:41;15.27;;;9.73;;
18166;SDS011;9208;42.688;23.404;2023-02-28T12:34:12;20.07;;;11.47;;
18166;SDS011;9208;42.688;23.404;2023-02-28T12:36:42;14.83;;;10.43;;
18166;SDS011;9208;42.688;23.404;2023-02-28T12:41:48;18.87;;;11.13;;
18166;SDS011;9208;42.688;23.404;2023-02-28T12:44:27;19.57;;;10.70;;
18166;SDS011;9208;42.688;23.404;2023-02-28T12:46:56;16.03;;;10.13;;
18166;SDS011;9208;42.688;23.404;2023-02-28T12:49:27;18.27;;;11.00;;
18166;SDS011;9208;42.688;23.404;2023-02-28T12:51:56;18.60;;;10.23;;
18166;SDS011;9208;42.688;23.404;2023-02-28T12:57:42;19.37;;;10.97;;
18166;SDS011;9208;42.688;23.404;2023-02-28T13:00:34;21.47;;;11.07;;
18166;SDS011;9208;42.688;23.404;2023-02-28T13:08:52;14.77;;;10.00;;
18166;SDS011;9208;42.688;23.404;2023-02-28T13:11:28;14.50;;;10.17;;
18166;SDS011;9208;42.688;23.404;2023-02-28T13:14:03;17.33;;;10.77;;
18166;SDS011;9208;42.688;23.404;2023-02-28T13:19:26;16.53;;;9.80;;
18166;SDS011;9208;42.688;23.404;2023-02-28T13:21:55;16.47;;;10.37;;
18166;SDS011;9208;42.688;23.404;2023-02-28T13:29:34;24.93;;;11.53;;
18166;SDS011;9208;42.688;23.404;2023-02-28T13:34:37;18.23;;;13.17;;
18166;SDS011;9208;42.688;23.404;2023-02-28T13:42:33;14.20;;;9.67;;
18166;SDS011;9208;42.688;23.404;2023-02-28T13:47:31;16.80;;;10.00;;
18166;SDS011;9208;42.688;23.404;2023-02-28T13:50:29;17.00;;;10.30;;
18166;SDS011;9208;42.688;23.404;2023-02-28T14:06:36;15.73;;;8.53;;
18166;SDS011;9208;42.688;23.404;2023-02-28T14:11:44;14.03;;;9.30;;
18166;SDS011;9208;42.688;23.404;2023-02-28T14:14:53;11.43;;;8.50;;
18166;SDS011;9208;42.688;23.404;2023-02-28T14:17:05;19.73;;;10.23;;
18166;SDS011;9208;42.688;23.404;2023-02-28T14:19:35;18.27;;;10.17;;
18166;SDS011;9208;42.688;23.404;2023-02-28T14:27:45;17.13;;;9.90;;
18166;SDS011;9208;42.688;23.404;2023-02-28T14:36:41;17.13;;;9.20;;
18166;SDS011;9208;42.688;23.404;2023-02-28T14:41:40;14.73;;;8.87;;
18166;SDS011;9208;42.688;23.404;2023-02-28T14:44:23;14.70;;;9.13;;
18166;SDS011;9208;42.688;23.404;2023-02-28T14:46:58;17.87;;;8.67;;
18166;SDS011;9208;42.688;23.404;2023-02-28T14:49:32;13.07;;;8.33;;
18166;SDS011;9208;42.688;23.404;2023-02-28T14:52:02;9.27;;;7.87;;
18166;SDS011;9208;42.688;23.404;2023-02-28T14:54:28;11.57;;;8.17;;
18166;SDS011;9208;42.688;23.404;2023-02-28T14:56:54;12.83;;;8.17;;
18166;SDS011;9208;42.688;23.404;2023-02-28T14:59:24;12.20;;;7.50;;
18166;SDS011;9208;42.688;23.404;2023-02-28T15:02:16;11.17;;;7.90;;
18166;SDS011;9208;42.688;23.404;2023-02-28T15:04:52;11.83;;;7.47;;
18166;SDS011;9208;42.688;23.404;2023-02-28T15:07:19;15.37;;;8.03;;
18166;SDS011;9208;42.688;23.404;2023-02-28T15:09:44;11.50;;;7.90;;
18166;SDS011;9208;42.688;23.404;2023-02-28T15:12:13;8.67;;;7.07;;
18166;SDS011;9208;42.688;23.404;2023-02-28T15:14:41;11.67;;;7.30;;
18166;SDS011;9208;42.688;23.404;2023-02-28T15:17:09;13.40;;;8.10;;
18166;SDS011;9208;42.688;23.404;2023-02-28T15:19:44;8.73;;;7.60;;
18166;SDS011;9208;42.688;23.404;2023-02-28T15:22:15;10.43;;;7.50;;
18166;SDS011;9208;42.688;23.404;2023-02-28T15:24:46;9.10;;;7.03;;
18166;SDS011;9208;42.688;23.404;2023-02-28T15:27:16;11.10;;;7.17;;
18166;SDS011;9208;42.688;23.404;2023-02-28T15:29:50;9.37;;;7.27;;
18166;SDS011;9208;42.688;23.404;2023-02-28T15:32:40;12.00;;;7.50;;
18166;SDS011;9208;42.688;23.404;2023-02-28T15:35:19;13.07;;;8.17;;
18166;SDS011;9208;42.688;23.404;2023-02-28T15:40:23;10.23;;;7.27;;
18166;SDS011;9208;42.688;23.404;2023-02-28T15:45:44;8.97;;;6.50;;
18166;SDS011;9208;42.688;23.404;2023-02-28T15:48:20;10.03;;;7.00;;
18166;SDS011;9208;42.688;23.404;2023-02-28T15:50:51;10.83;;;7.70;;
18166;SDS011;9208;42.688;23.404;2023-02-28T15:53:24;10.83;;;8.00;;
18166;SDS011;9208;42.688;23.404;2023-02-28T15:56:04;8.77;;;7.63;;
18166;SDS011;9208;42.688;23.404;2023-02-28T15:58:32;10.80;;;7.80;;
18166;SDS011;9208;42.688;23.404;2023-02-28T16:01:00;9.23;;;8.07;;
18166;SDS011;9208;42.688;23.404;2023-02-28T16:03:40;8.67;;;7.07;;
18166;SDS011;9208;42.688;23.404;2023-02-28T16:08:49;9.90;;;6.77;;
18166;SDS011;9208;42.688;23.404;2023-02-28T16:11:16;9.90;;;6.87;;
18166;SDS011;9208;42.688;23.404;2023-02-28T16:13:42;9.37;;;6.70;;
18166;SDS011;9208;42.688;23.404;2023-02-28T16:16:07;8.57;;;6.60;;
18166;SDS011;9208;42.688;23.404;2023-02-28T16:18:33;7.87;;;5.93;;
18166;SDS011;9208;42.688;23.404;2023-02-28T16:20:58;8.97;;;6.33;;
18166;SDS011;9208;42.688;23.404;2023-02-28T16:23:24;12.40;;;6.50;;
18166;SDS011;9208;42.688;23.404;2023-02-28T16:25:49;7.10;;;5.67;;
18166;SDS011;9208;42.688;23.404;2023-02-28T16:28:23;8.80;;;6.10;;
18166;SDS011;9208;42.688;23.404;2023-02-28T16:30:54;8.77;;;6.00;;
18166;SDS011;9208;42.688;23.404;2023-02-28T16:33:24;11.27;;;6.10;;
18166;SDS011;9208;42.688;23.404;2023-02-28T16:35:50;8.77;;;5.73;;
18166;SDS011;9208;42.688;23.404;2023-02-28T16:38:15;7.17;;;5.73;;
18166;SDS011;9208;42.688;23.404;2023-02-28T16:40:40;8.20;;;6.00;;
18166;SDS011;9208;42.688;23.404;2023-02-28T16:43:19;7.43;;;5.43;;
18166;SDS011;9208;42.688;23.404;2023-02-28T16:45:57;9.13;;;5.33;;
18166;SDS011;9208;42.688;23.404;2023-02-28T16:48:23;9.73;;;6.10;;
18166;SDS011;9208;42.688;23.404;2023-02-28T16:50:50;7.80;;;5.33;;
18166;SDS011;9208;42.688;23.404;2023-02-28T16:53:16;6.67;;;5.70;;
18166;SDS011;9208;42.688;23.404;2023-02-28T16:55:41;11.20;;;5.53;;
18166;SDS011;9208;42.688;23.404;2023-02-28T16:58:10;6.47;;;5.57;;
18166;SDS011;9208;42.688;23.404;2023-02-28T17:00:39;6.47;;;5.57;;
18166;SDS011;9208;42.688;23.404;2023-02-28T17:03:04;5.97;;;5.00;;
18166;SDS011;9208;42.688;23.404;2023-02-28T17:05:33;5.60;;;4.47;;
18166;SDS011;9208;42.688;23.404;2023-02-28T17:08:03;6.97;;;4.93;;
18166;SDS011;9208;42.688;23.404;2023-02-28T17:10:28;6.20;;;4.27;;
18166;SDS011;9208;42.688;23.404;2023-02-28T17:12:54;6.30;;;4.20;;
18166;SDS011;9208;42.688;23.404;2023-02-28T17:15:20;7.23;;;4.50;;
18166;SDS011;9208;42.688;23.404;2023-02-28T17:17:46;4.70;;;4.03;;
18166;SDS011;9208;42.688;23.404;2023-02-28T17:20:19;4.83;;;3.53;;
18166;SDS011;9208;42.688;23.404;2023-02-28T17:22:47;4.53;;;3.30;;
18166;SDS011;9208;42.688;23.404;2023-02-28T17:25:13;4.60;;;3.30;;
18166;SDS011;9208;42.688;23.404;2023-02-28T17:27:39;5.13;;;3.23;;
18166;SDS011;9208;42.688;23.404;2023-02-28T17:30:15;3.83;;;2.93;;
18166;SDS011;9208;42.688;23.404;2023-02-28T17:32:43;3.77;;;3.20;;